sensor_id;sensor_type;location;lat;lon;timestamp;P1;durP1;ratioP1;P2;durP2;ratioP2
28577;SDS011;15769;52.248;15.818;2022-12-17T00:01:18;167.60;;;56.50;;
28577;SDS011;15769;52.248;15.818;2022-12-17T00:06:39;185.37;;;61.00;;
28577;SDS011;15769;52.248;15.818;2022-12-17T00:12:01;176.77;;;60.30;;
28577;SDS011;15769;52.248;15.818;2022-12-17T00:17:22;168.80;;;57.00;;
28577;SDS011;15769;52.248;15.818;2022-12-17T00:22:43;167.10;;;57.63;;
28577;SDS011;15769;52.248;15.818;2022-12-17T00:28:08;156.67;;;52.87;;
28577;SDS011;15769;52.248;15.818;2022-12-17T00:33:30;158.93;;;51.60;;
28577;SDS011;15769;52.248;15.818;2022-12-17T00:38:53;172.25;;;54.13;;
28577;SDS011;15769;52.248;15.818;2022-12-17T00:44:14;173.27;;;54.97;;
28577;SDS011;15769;52.248;15.818;2022-12-17T00:49:35;162.40;;;54.23;;
28577;SDS011;15769;52.248;15.818;2022-12-17T00:54:59;155.73;;;54.72;;
28577;SDS011;15769;52.248;15.818;2022-12-17T01:00:20;170.50;;;55.67;;
28577;SDS011;15769;52.248;15.818;2022-12-17T01:05:41;165.87;;;55.67;;
28577;SDS011;15769;52.248;15.818;2022-12-17T01:11:04;156.47;;;52.23;;
28577;SDS011;15769;52.248;15.818;2022-12-17T01:16:32;157.93;;;51.67;;
28577;SDS011;15769;52.248;15.818;2022-12-17T01:21:57;127.30;;;43.97;;
28577;SDS011;15769;52.248;15.818;2022-12-17T01:27:18;151.47;;;51.17;;
28577;SDS011;15769;52.248;15.818;2022-12-17T01:32:39;132.20;;;45.30;;
28577;SDS011;15769;52.248;15.818;2022-12-17T01:38:14;151.63;;;48.67;;
28577;SDS011;15769;52.248;15.818;2022-12-17T01:43:36;139.83;;;47.50;;
28577;SDS011;15769;52.248;15.818;2022-12-17T01:48:58;114.30;;;37.43;;
28577;SDS011;15769;52.248;15.818;2022-12-17T01:54:21;141.13;;;46.83;;
28577;SDS011;15769;52.248;15.818;2022-12-17T01:59:47;149.70;;;49.00;;
28577;SDS011;15769;52.248;15.818;2022-12-17T02:05:21;147.93;;;47.77;;
28577;SDS011;15769;52.248;15.818;2022-12-17T02:16:29;165.83;;;52.70;;
28577;SDS011;15769;52.248;15.818;2022-12-17T02:21:52;166.67;;;52.90;;
28577;SDS011;15769;52.248;15.818;2022-12-17T02:27:18;172.73;;;55.23;;
28577;SDS011;15769;52.248;15.818;2022-12-17T02:32:39;163.17;;;51.30;;
28577;SDS011;15769;52.248;15.818;2022-12-17T02:43:39;150.13;;;49.33;;
28577;SDS011;15769;52.248;15.818;2022-12-17T02:49:00;132.03;;;43.20;;
28577;SDS011;15769;52.248;15.818;2022-12-17T02:54:22;135.43;;;44.77;;
28577;SDS011;15769;52.248;15.818;2022-12-17T02:59:43;130.30;;;44.67;;
28577;SDS011;15769;52.248;15.818;2022-12-17T03:05:06;127.73;;;45.03;;
28577;SDS011;15769;52.248;15.818;2022-12-17T03:10:47;143.30;;;46.10;;
28577;SDS011;15769;52.248;15.818;2022-12-17T03:16:12;144.17;;;46.10;;
28577;SDS011;15769;52.248;15.818;2022-12-17T03:21:39;145.43;;;44.87;;
28577;SDS011;15769;52.248;15.818;2022-12-17T03:27:01;138.40;;;45.90;;
28577;SDS011;15769;52.248;15.818;2022-12-17T03:32:22;145.33;;;46.77;;
28577;SDS011;15769;52.248;15.818;2022-12-17T03:37:43;158.37;;;48.27;;
28577;SDS011;15769;52.248;15.818;2022-12-17T03:43:05;135.70;;;42.87;;
28577;SDS011;15769;52.248;15.818;2022-12-17T03:48:27;137.47;;;44.20;;
28577;SDS011;15769;52.248;15.818;2022-12-17T03:53:48;121.33;;;39.97;;
28577;SDS011;15769;52.248;15.818;2022-12-17T03:59:09;146.53;;;45.67;;
28577;SDS011;15769;52.248;15.818;2022-12-17T04:04:30;150.67;;;44.97;;
28577;SDS011;15769;52.248;15.818;2022-12-17T04:09:52;152.40;;;45.50;;
28577;SDS011;15769;52.248;15.818;2022-12-17T04:15:14;148.73;;;45.20;;
28577;SDS011;15769;52.248;15.818;2022-12-17T04:20:35;162.83;;;46.83;;
28577;SDS011;15769;52.248;15.818;2022-12-17T04:25:56;158.40;;;46.40;;
28577;SDS011;15769;52.248;15.818;2022-12-17T04:31:17;154.63;;;46.47;;
28577;SDS011;15769;52.248;15.818;2022-12-17T04:36:40;156.50;;;46.70;;
28577;SDS011;15769;52.248;15.818;2022-12-17T04:42:01;129.57;;;40.17;;
28577;SDS011;15769;52.248;15.818;2022-12-17T04:47:22;154.63;;;48.93;;
28577;SDS011;15769;52.248;15.818;2022-12-17T04:52:59;146.47;;;45.73;;
28577;SDS011;15769;52.248;15.818;2022-12-17T04:58:21;141.77;;;41.40;;
28577;SDS011;15769;52.248;15.818;2022-12-17T05:03:42;129.17;;;39.80;;
28577;SDS011;15769;52.248;15.818;2022-12-17T05:09:03;127.77;;;39.73;;
28577;SDS011;15769;52.248;15.818;2022-12-17T05:14:24;135.53;;;42.87;;
28577;SDS011;15769;52.248;15.818;2022-12-17T05:19:45;148.13;;;45.43;;
28577;SDS011;15769;52.248;15.818;2022-12-17T05:25:06;145.03;;;45.37;;
28577;SDS011;15769;52.248;15.818;2022-12-17T05:30:27;150.23;;;46.53;;
28577;SDS011;15769;52.248;15.818;2022-12-17T05:35:48;155.10;;;42.17;;
28577;SDS011;15769;52.248;15.818;2022-12-17T05:41:09;136.57;;;41.50;;
28577;SDS011;15769;52.248;15.818;2022-12-17T05:46:33;136.98;;;42.85;;
28577;SDS011;15769;52.248;15.818;2022-12-17T05:51:54;128.20;;;39.43;;
28577;SDS011;15769;52.248;15.818;2022-12-17T05:57:15;135.43;;;40.53;;
28577;SDS011;15769;52.248;15.818;2022-12-17T06:02:36;132.73;;;41.87;;
28577;SDS011;15769;52.248;15.818;2022-12-17T06:08:05;129.83;;;39.27;;
28577;SDS011;15769;52.248;15.818;2022-12-17T06:13:27;165.17;;;51.40;;
28577;SDS011;15769;52.248;15.818;2022-12-17T06:18:48;154.97;;;44.57;;
28577;SDS011;15769;52.248;15.818;2022-12-17T06:24:10;148.37;;;44.63;;
28577;SDS011;15769;52.248;15.818;2022-12-17T06:29:31;157.67;;;43.93;;
28577;SDS011;15769;52.248;15.818;2022-12-17T06:34:52;144.07;;;42.30;;
28577;SDS011;15769;52.248;15.818;2022-12-17T06:40:12;140.60;;;41.50;;
28577;SDS011;15769;52.248;15.818;2022-12-17T06:45:34;139.77;;;41.07;;
28577;SDS011;15769;52.248;15.818;2022-12-17T06:50:55;150.87;;;42.17;;
28577;SDS011;15769;52.248;15.818;2022-12-17T06:56:17;147.60;;;42.53;;
28577;SDS011;15769;52.248;15.818;2022-12-17T07:01:38;139.20;;;40.60;;
28577;SDS011;15769;52.248;15.818;2022-12-17T07:06:59;148.63;;;43.87;;
28577;SDS011;15769;52.248;15.818;2022-12-17T07:12:22;144.97;;;42.27;;
28577;SDS011;15769;52.248;15.818;2022-12-17T07:17:53;135.00;;;40.17;;
28577;SDS011;15769;52.248;15.818;2022-12-17T07:23:21;164.10;;;52.70;;
28577;SDS011;15769;52.248;15.818;2022-12-17T07:28:43;154.17;;;50.20;;
28577;SDS011;15769;52.248;15.818;2022-12-17T07:34:04;129.90;;;40.63;;
28577;SDS011;15769;52.248;15.818;2022-12-17T07:39:26;124.13;;;38.30;;
28577;SDS011;15769;52.248;15.818;2022-12-17T07:44:47;116.53;;;36.03;;
28577;SDS011;15769;52.248;15.818;2022-12-17T07:50:08;120.80;;;39.60;;
28577;SDS011;15769;52.248;15.818;2022-12-17T07:55:29;114.90;;;36.67;;
28577;SDS011;15769;52.248;15.818;2022-12-17T08:06:15;111.87;;;36.47;;
28577;SDS011;15769;52.248;15.818;2022-12-17T08:17:00;144.90;;;51.43;;
28577;SDS011;15769;52.248;15.818;2022-12-17T08:22:21;115.33;;;46.73;;
28577;SDS011;15769;52.248;15.818;2022-12-17T08:27:43;108.60;;;47.93;;
28577;SDS011;15769;52.248;15.818;2022-12-17T08:33:11;114.27;;;43.13;;
28577;SDS011;15769;52.248;15.818;2022-12-17T08:38:32;105.13;;;39.63;;
28577;SDS011;15769;52.248;15.818;2022-12-17T08:43:54;101.63;;;42.17;;
28577;SDS011;15769;52.248;15.818;2022-12-17T08:49:15;100.67;;;32.93;;
28577;SDS011;15769;52.248;15.818;2022-12-17T08:54:39;85.57;;;29.60;;
28577;SDS011;15769;52.248;15.818;2022-12-17T09:00:11;87.50;;;29.43;;
28577;SDS011;15769;52.248;15.818;2022-12-17T09:05:32;81.23;;;29.80;;
28577;SDS011;15769;52.248;15.818;2022-12-17T09:10:54;124.00;;;32.63;;
28577;SDS011;15769;52.248;15.818;2022-12-17T09:16:15;109.77;;;31.90;;
28577;SDS011;15769;52.248;15.818;2022-12-17T09:21:36;115.67;;;36.53;;
28577;SDS011;15769;52.248;15.818;2022-12-17T09:26:59;101.33;;;40.50;;
28577;SDS011;15769;52.248;15.818;2022-12-17T09:32:20;102.60;;;33.43;;
28577;SDS011;15769;52.248;15.818;2022-12-17T09:37:42;118.50;;;34.00;;
28577;SDS011;15769;52.248;15.818;2022-12-17T09:43:04;100.13;;;31.33;;
28577;SDS011;15769;52.248;15.818;2022-12-17T09:48:55;132.93;;;37.27;;
28577;SDS011;15769;52.248;15.818;2022-12-17T10:00:13;118.90;;;37.53;;
28577;SDS011;15769;52.248;15.818;2022-12-17T10:05:35;134.40;;;48.60;;
28577;SDS011;15769;52.248;15.818;2022-12-17T10:10:57;159.07;;;57.23;;
28577;SDS011;15769;52.248;15.818;2022-12-17T10:16:37;159.10;;;45.57;;
28577;SDS011;15769;52.248;15.818;2022-12-17T10:22:11;226.57;;;82.77;;
28577;SDS011;15769;52.248;15.818;2022-12-17T10:27:35;161.10;;;61.47;;
28577;SDS011;15769;52.248;15.818;2022-12-17T10:32:55;137.10;;;44.67;;
28577;SDS011;15769;52.248;15.818;2022-12-17T10:43:41;179.00;;;46.97;;
28577;SDS011;15769;52.248;15.818;2022-12-17T10:49:03;131.00;;;38.57;;
28577;SDS011;15769;52.248;15.818;2022-12-17T10:54:30;203.13;;;73.60;;
28577;SDS011;15769;52.248;15.818;2022-12-17T10:59:52;266.30;;;90.13;;
28577;SDS011;15769;52.248;15.818;2022-12-17T11:05:15;397.73;;;150.97;;
28577;SDS011;15769;52.248;15.818;2022-12-17T11:10:44;129.20;;;48.70;;
28577;SDS011;15769;52.248;15.818;2022-12-17T11:16:10;140.23;;;46.00;;
28577;SDS011;15769;52.248;15.818;2022-12-17T11:21:39;284.13;;;96.87;;
28577;SDS011;15769;52.248;15.818;2022-12-17T11:27:09;178.73;;;58.00;;
28577;SDS011;15769;52.248;15.818;2022-12-17T11:32:49;156.40;;;51.17;;
28577;SDS011;15769;52.248;15.818;2022-12-17T11:50:11;185.97;;;55.03;;
28577;SDS011;15769;52.248;15.818;2022-12-17T11:55:47;153.97;;;43.03;;
28577;SDS011;15769;52.248;15.818;2022-12-17T12:18:22;157.83;;;43.87;;
28577;SDS011;15769;52.248;15.818;2022-12-17T12:29:25;168.30;;;49.73;;
28577;SDS011;15769;52.248;15.818;2022-12-17T12:34:53;158.23;;;47.63;;
28577;SDS011;15769;52.248;15.818;2022-12-17T12:40:31;181.20;;;59.50;;
28577;SDS011;15769;52.248;15.818;2022-12-17T12:45:59;205.30;;;77.63;;
28577;SDS011;15769;52.248;15.818;2022-12-17T12:51:35;189.53;;;66.50;;
28577;SDS011;15769;52.248;15.818;2022-12-17T12:56:57;223.20;;;85.93;;
28577;SDS011;15769;52.248;15.818;2022-12-17T13:08:00;230.88;;;80.30;;
28577;SDS011;15769;52.248;15.818;2022-12-17T13:13:12;498.50;;;204.20;;
28577;SDS011;15769;52.248;15.818;2022-12-17T13:18:32;421.83;;;157.77;;
28577;SDS011;15769;52.248;15.818;2022-12-17T13:23:37;212.40;;;87.57;;
28577;SDS011;15769;52.248;15.818;2022-12-17T13:28:40;292.80;;;95.18;;
28577;SDS011;15769;52.248;15.818;2022-12-17T13:33:47;140.60;;;52.40;;
28577;SDS011;15769;52.248;15.818;2022-12-17T13:44:22;212.20;;;91.57;;
28577;SDS011;15769;52.248;15.818;2022-12-17T13:49:28;171.37;;;65.13;;
28577;SDS011;15769;52.248;15.818;2022-12-17T13:54:32;136.27;;;50.97;;
28577;SDS011;15769;52.248;15.818;2022-12-17T13:59:34;154.85;;;54.47;;
28577;SDS011;15769;52.248;15.818;2022-12-17T14:04:37;165.15;;;61.20;;
28577;SDS011;15769;52.248;15.818;2022-12-17T14:09:41;162.30;;;50.80;;
28577;SDS011;15769;52.248;15.818;2022-12-17T14:14:45;130.70;;;48.50;;
28577;SDS011;15769;52.248;15.818;2022-12-17T14:19:53;206.70;;;68.63;;
28577;SDS011;15769;52.248;15.818;2022-12-17T14:25:03;161.15;;;57.88;;
28577;SDS011;15769;52.248;15.818;2022-12-17T14:30:19;229.87;;;78.57;;
28577;SDS011;15769;52.248;15.818;2022-12-17T14:35:27;156.00;;;73.87;;
28577;SDS011;15769;52.248;15.818;2022-12-17T14:40:31;140.87;;;45.43;;
28577;SDS011;15769;52.248;15.818;2022-12-17T14:45:37;120.97;;;42.60;;
28577;SDS011;15769;52.248;15.818;2022-12-17T14:50:59;211.33;;;77.30;;
28577;SDS011;15769;52.248;15.818;2022-12-17T14:56:02;173.20;;;62.33;;
28577;SDS011;15769;52.248;15.818;2022-12-17T15:01:06;188.83;;;66.83;;
28577;SDS011;15769;52.248;15.818;2022-12-17T15:06:10;156.83;;;55.90;;
28577;SDS011;15769;52.248;15.818;2022-12-17T15:11:16;134.00;;;51.83;;
28577;SDS011;15769;52.248;15.818;2022-12-17T15:16:21;139.70;;;46.90;;
28577;SDS011;15769;52.248;15.818;2022-12-17T15:21:23;142.50;;;51.07;;
28577;SDS011;15769;52.248;15.818;2022-12-17T15:26:26;172.93;;;57.65;;
28577;SDS011;15769;52.248;15.818;2022-12-17T15:31:30;212.13;;;55.93;;
28577;SDS011;15769;52.248;15.818;2022-12-17T15:36:37;152.57;;;44.70;;
28577;SDS011;15769;52.248;15.818;2022-12-17T15:41:40;116.80;;;39.17;;
28577;SDS011;15769;52.248;15.818;2022-12-17T15:47:01;111.55;;;32.88;;
28577;SDS011;15769;52.248;15.818;2022-12-17T15:52:04;126.83;;;43.43;;
28577;SDS011;15769;52.248;15.818;2022-12-17T15:57:08;205.20;;;54.70;;
28577;SDS011;15769;52.248;15.818;2022-12-17T16:02:20;172.90;;;55.58;;
28577;SDS011;15769;52.248;15.818;2022-12-17T16:07:23;614.23;;;238.23;;
28577;SDS011;15769;52.248;15.818;2022-12-17T16:12:25;258.83;;;121.33;;
28577;SDS011;15769;52.248;15.818;2022-12-17T16:17:31;397.70;;;181.50;;
28577;SDS011;15769;52.248;15.818;2022-12-17T16:22:33;250.60;;;78.73;;
28577;SDS011;15769;52.248;15.818;2022-12-17T16:27:36;656.07;;;274.30;;
28577;SDS011;15769;52.248;15.818;2022-12-17T16:32:38;1121.43;;;422.03;;
28577;SDS011;15769;52.248;15.818;2022-12-17T16:37:41;414.27;;;142.13;;
28577;SDS011;15769;52.248;15.818;2022-12-17T16:42:45;470.13;;;158.83;;
28577;SDS011;15769;52.248;15.818;2022-12-17T16:47:47;374.17;;;112.83;;
28577;SDS011;15769;52.248;15.818;2022-12-17T16:52:51;225.97;;;73.27;;
28577;SDS011;15769;52.248;15.818;2022-12-17T16:57:55;168.40;;;64.30;;
28577;SDS011;15769;52.248;15.818;2022-12-17T17:08:00;120.57;;;45.30;;
28577;SDS011;15769;52.248;15.818;2022-12-17T17:13:03;110.93;;;38.07;;
28577;SDS011;15769;52.248;15.818;2022-12-17T17:18:06;167.80;;;62.85;;
28577;SDS011;15769;52.248;15.818;2022-12-17T17:23:08;212.17;;;69.87;;
28577;SDS011;15769;52.248;15.818;2022-12-17T17:28:11;201.53;;;59.03;;
28577;SDS011;15769;52.248;15.818;2022-12-17T17:33:13;161.07;;;58.40;;
28577;SDS011;15769;52.248;15.818;2022-12-17T17:38:16;104.97;;;33.30;;
28577;SDS011;15769;52.248;15.818;2022-12-17T17:43:19;118.93;;;41.17;;
28577;SDS011;15769;52.248;15.818;2022-12-17T17:53:24;765.90;;;238.63;;
28577;SDS011;15769;52.248;15.818;2022-12-17T17:58:30;1429.63;;;358.03;;
28577;SDS011;15769;52.248;15.818;2022-12-17T18:03:33;1388.67;;;430.10;;
28577;SDS011;15769;52.248;15.818;2022-12-17T18:08:36;495.27;;;120.10;;
28577;SDS011;15769;52.248;15.818;2022-12-17T18:13:39;218.40;;;67.20;;
28577;SDS011;15769;52.248;15.818;2022-12-17T18:18:59;217.83;;;74.40;;
28577;SDS011;15769;52.248;15.818;2022-12-17T18:24:05;208.17;;;79.87;;
28577;SDS011;15769;52.248;15.818;2022-12-17T18:29:10;138.53;;;51.13;;
28577;SDS011;15769;52.248;15.818;2022-12-17T18:34:17;390.83;;;113.10;;
28577;SDS011;15769;52.248;15.818;2022-12-17T18:39:22;224.80;;;75.67;;
28577;SDS011;15769;52.248;15.818;2022-12-17T18:44:26;329.27;;;112.20;;
28577;SDS011;15769;52.248;15.818;2022-12-17T18:49:30;182.77;;;53.37;;
28577;SDS011;15769;52.248;15.818;2022-12-17T18:54:33;109.05;;;40.30;;
28577;SDS011;15769;52.248;15.818;2022-12-17T18:59:36;127.27;;;56.20;;
28577;SDS011;15769;52.248;15.818;2022-12-17T19:04:39;181.75;;;62.97;;
28577;SDS011;15769;52.248;15.818;2022-12-17T19:09:43;76.87;;;28.17;;
28577;SDS011;15769;52.248;15.818;2022-12-17T19:19:48;106.50;;;37.03;;
28577;SDS011;15769;52.248;15.818;2022-12-17T19:24:50;119.03;;;42.73;;
28577;SDS011;15769;52.248;15.818;2022-12-17T19:29:53;106.72;;;38.92;;
28577;SDS011;15769;52.248;15.818;2022-12-17T19:34:59;96.93;;;30.87;;
28577;SDS011;15769;52.248;15.818;2022-12-17T19:40:02;124.90;;;37.47;;
28577;SDS011;15769;52.248;15.818;2022-12-17T19:45:05;619.17;;;132.90;;
28577;SDS011;15769;52.248;15.818;2022-12-17T19:50:08;561.67;;;141.75;;
28577;SDS011;15769;52.248;15.818;2022-12-17T19:55:13;129.20;;;45.50;;
28577;SDS011;15769;52.248;15.818;2022-12-17T20:00:17;107.63;;;40.88;;
28577;SDS011;15769;52.248;15.818;2022-12-17T20:05:20;123.18;;;43.00;;
28577;SDS011;15769;52.248;15.818;2022-12-17T20:10:24;143.77;;;51.53;;
28577;SDS011;15769;52.248;15.818;2022-12-17T20:15:27;134.73;;;49.45;;
28577;SDS011;15769;52.248;15.818;2022-12-17T20:20:31;114.30;;;40.53;;
28577;SDS011;15769;52.248;15.818;2022-12-17T20:25:34;165.13;;;53.97;;
28577;SDS011;15769;52.248;15.818;2022-12-17T20:30:44;103.00;;;35.37;;
28577;SDS011;15769;52.248;15.818;2022-12-17T20:36:04;160.32;;;52.83;;
28577;SDS011;15769;52.248;15.818;2022-12-17T20:41:13;136.77;;;44.17;;
28577;SDS011;15769;52.248;15.818;2022-12-17T20:46:22;142.70;;;48.40;;
28577;SDS011;15769;52.248;15.818;2022-12-17T20:51:32;122.07;;;44.17;;
28577;SDS011;15769;52.248;15.818;2022-12-17T20:56:37;128.50;;;43.80;;
28577;SDS011;15769;52.248;15.818;2022-12-17T21:14:25;125.87;;;41.07;;
28577;SDS011;15769;52.248;15.818;2022-12-17T21:19:52;160.90;;;50.87;;
28577;SDS011;15769;52.248;15.818;2022-12-17T21:37:22;185.00;;;59.87;;
28577;SDS011;15769;52.248;15.818;2022-12-17T21:42:31;199.83;;;64.63;;
28577;SDS011;15769;52.248;15.818;2022-12-17T21:47:54;166.30;;;55.50;;
28577;SDS011;15769;52.248;15.818;2022-12-17T21:52:57;165.30;;;53.27;;
28577;SDS011;15769;52.248;15.818;2022-12-17T21:58:03;155.00;;;49.28;;
28577;SDS011;15769;52.248;15.818;2022-12-17T22:03:10;178.73;;;56.20;;
28577;SDS011;15769;52.248;15.818;2022-12-17T22:08:13;158.63;;;47.17;;
28577;SDS011;15769;52.248;15.818;2022-12-17T22:13:19;151.20;;;43.87;;
28577;SDS011;15769;52.248;15.818;2022-12-17T22:18:40;149.77;;;41.33;;
28577;SDS011;15769;52.248;15.818;2022-12-17T22:23:44;156.38;;;46.72;;
28577;SDS011;15769;52.248;15.818;2022-12-17T22:28:49;147.53;;;42.70;;
28577;SDS011;15769;52.248;15.818;2022-12-17T22:33:51;122.78;;;32.67;;
28577;SDS011;15769;52.248;15.818;2022-12-17T22:39:16;116.33;;;34.03;;
28577;SDS011;15769;52.248;15.818;2022-12-17T22:44:39;107.10;;;31.13;;
28577;SDS011;15769;52.248;15.818;2022-12-17T22:49:56;94.83;;;28.43;;
28577;SDS011;15769;52.248;15.818;2022-12-17T22:55:00;132.97;;;34.83;;
28577;SDS011;15769;52.248;15.818;2022-12-17T23:00:06;142.90;;;38.67;;
28577;SDS011;15769;52.248;15.818;2022-12-17T23:05:14;181.90;;;49.00;;
28577;SDS011;15769;52.248;15.818;2022-12-17T23:10:17;223.97;;;58.30;;
28577;SDS011;15769;52.248;15.818;2022-12-17T23:15:22;259.40;;;60.28;;
28577;SDS011;15769;52.248;15.818;2022-12-17T23:20:35;258.83;;;66.80;;
28577;SDS011;15769;52.248;15.818;2022-12-17T23:25:38;191.07;;;45.73;;
28577;SDS011;15769;52.248;15.818;2022-12-17T23:30:41;204.23;;;48.92;;
28577;SDS011;15769;52.248;15.818;2022-12-17T23:35:43;303.13;;;81.63;;
28577;SDS011;15769;52.248;15.818;2022-12-17T23:40:46;149.53;;;39.57;;
28577;SDS011;15769;52.248;15.818;2022-12-17T23:45:52;213.87;;;57.30;;
28577;SDS011;15769;52.248;15.818;2022-12-17T23:50:55;197.35;;;46.95;;
28577;SDS011;15769;52.248;15.818;2022-12-17T23:56:05;162.57;;;37.45;;
